createdAt,value
2023-05-10T06:56:02.660Z,94091.00
2023-05-10T06:57:04.161Z,94091.00
2023-05-10T06:58:12.739Z,94091.00
2023-05-10T06:59:02.700Z,94091.00
2023-05-10T07:00:02.649Z,94089.00
2023-05-10T07:01:02.778Z,94087.00
2023-05-10T07:02:02.686Z,94087.00
2023-05-10T07:03:02.671Z,94083.00
2023-05-10T07:04:02.621Z,94089.00
2023-05-10T07:05:03.406Z,94087.00
2023-05-10T07:06:02.618Z,94085.00
2023-05-10T07:07:02.601Z,94087.00
2023-05-10T07:08:02.601Z,94089.00
2023-05-10T07:09:02.614Z,94087.00
2023-05-10T07:10:02.592Z,94089.00
2023-05-10T07:11:02.576Z,94091.00
2023-05-10T07:12:02.663Z,94089.00
2023-05-10T07:13:03.174Z,94089.00
2023-05-10T07:14:02.562Z,94089.00
2023-05-10T07:15:02.673Z,94089.00
2023-05-10T07:16:02.604Z,94089.00
2023-05-10T07:17:02.551Z,94091.00
2023-05-10T07:18:02.658Z,94091.00
2023-05-10T07:19:02.532Z,94089.00
2023-05-10T07:20:02.539Z,94089.00
2023-05-10T07:21:02.569Z,94089.00
2023-05-10T07:22:02.499Z,94089.00
2023-05-10T07:23:02.522Z,94089.00
2023-05-10T07:24:02.592Z,94093.00
2023-05-10T07:25:02.498Z,94093.00
2023-05-10T07:26:02.484Z,94093.00
2023-05-10T07:27:02.618Z,94091.00
2023-05-10T07:28:02.901Z,94095.00
2023-05-10T07:29:02.507Z,94095.00
2023-05-10T07:30:02.552Z,94095.00
2023-05-10T07:31:02.708Z,94099.00
2023-05-10T07:32:03.657Z,94099.00
2023-05-10T07:33:02.675Z,94097.00
2023-05-10T07:34:02.622Z,94097.00
2023-05-10T07:35:02.608Z,94099.00
2023-05-10T07:36:02.657Z,94099.00
2023-05-10T07:37:02.587Z,94099.00
2023-05-10T07:38:02.646Z,94099.00
2023-05-10T07:39:02.558Z,94097.00
2023-05-10T07:40:02.609Z,94097.00
2023-05-10T07:41:02.572Z,94095.00
2023-05-10T07:42:02.575Z,94095.00
2023-05-10T07:43:02.679Z,94097.00
2023-05-10T07:44:02.560Z,94095.00
2023-05-10T07:45:02.545Z,94097.00
2023-05-10T07:46:02.663Z,94097.00
2023-05-10T07:47:02.518Z,94097.00
2023-05-10T07:48:04.127Z,94099.00
2023-05-10T07:49:02.499Z,94103.00
2023-05-10T07:50:02.622Z,94101.00
2023-05-10T07:51:02.482Z,94105.00
2023-05-10T07:52:02.482Z,94107.00
2023-05-10T07:53:02.492Z,94107.00
2023-05-10T07:54:03.524Z,94110.00
2023-05-10T07:55:02.610Z,94110.00
2023-05-10T07:56:02.547Z,94107.00
2023-05-10T07:57:02.643Z,94112.00
2023-05-10T07:58:02.708Z,94110.00
2023-05-10T07:59:02.704Z,94110.00
2023-05-10T08:00:03.112Z,94112.00
2023-05-10T08:01:02.866Z,94108.00
2023-05-10T08:02:02.901Z,94107.00
2023-05-10T08:03:03.010Z,94107.00
2023-05-10T08:04:03.163Z,94108.00
2023-05-10T08:05:03.009Z,94112.00
2023-05-10T08:06:03.069Z,94110.00
2023-05-10T08:07:03.114Z,94112.00
2023-05-10T08:08:03.283Z,94112.00
2023-05-10T08:09:03.229Z,94114.00
2023-05-10T08:10:03.259Z,94116.00
2023-05-10T08:11:03.327Z,94116.00
2023-05-10T08:12:03.468Z,94116.00
2023-05-10T08:13:03.415Z,94114.00
2023-05-10T08:14:03.613Z,94116.00
2023-05-10T08:15:03.612Z,94118.00
2023-05-10T08:16:03.566Z,94118.00
2023-05-10T08:17:03.597Z,94116.00
2023-05-10T08:18:03.591Z,94116.00
2023-05-10T08:19:03.668Z,94120.00
2023-05-10T08:20:03.613Z,94120.00
2023-05-10T08:21:03.612Z,94112.00
2023-05-10T08:22:03.685Z,94112.00
2023-05-10T08:23:03.735Z,94110.00
2023-05-10T08:24:03.794Z,94110.00
2023-05-10T08:25:04.115Z,94112.00
2023-05-10T08:26:03.762Z,94114.00
2023-05-10T08:27:03.787Z,94112.00
2023-05-10T08:28:03.799Z,94116.00
2023-05-10T08:29:03.788Z,94112.00
2023-05-10T08:30:04.150Z,94114.00
2023-05-10T08:31:03.812Z,94110.00
2023-05-10T08:32:03.800Z,94112.00
2023-05-10T08:33:03.897Z,94112.00
2023-05-10T08:34:03.782Z,94114.00
2023-05-10T08:35:04.142Z,94112.00
2023-05-10T08:36:03.816Z,94114.00
2023-05-10T08:37:03.856Z,94120.00
2023-05-10T08:38:03.923Z,94120.00
2023-05-10T08:39:04.038Z,94122.00
2023-05-10T08:40:04.172Z,94120.00
2023-05-10T08:41:05.646Z,94130.00
2023-05-10T08:42:04.130Z,94130.00
2023-05-10T08:43:04.196Z,94132.00
2023-05-10T08:44:04.267Z,94130.00
2023-05-10T08:45:04.652Z,94132.00
2023-05-10T08:46:04.300Z,94132.00
2023-05-10T08:47:04.465Z,94136.00
2023-05-10T08:48:04.437Z,94134.00
2023-05-10T08:49:04.388Z,94134.00
2023-05-10T08:50:04.431Z,94136.00
2023-05-10T08:51:04.456Z,94134.00
2023-05-10T08:52:04.498Z,94132.00
2023-05-10T08:53:04.619Z,94132.00
2023-05-10T08:54:04.618Z,94130.00
2023-05-10T08:55:04.746Z,94132.00
2023-05-10T08:56:04.625Z,94122.00
2023-05-10T08:57:04.632Z,94130.00
2023-05-10T08:58:04.702Z,94130.00
2023-05-10T08:59:04.704Z,94130.00
2023-05-10T09:00:04.755Z,94132.00
2023-05-10T09:01:04.826Z,94136.00
2023-05-10T09:02:04.816Z,94132.00
2023-05-10T09:03:04.903Z,94132.00
2023-05-10T09:04:04.928Z,94134.00
2023-05-10T09:05:04.905Z,94134.00
2023-05-10T09:06:04.825Z,94134.00
2023-05-10T09:07:04.819Z,94134.00
2023-05-10T09:08:04.771Z,94134.00
2023-05-10T09:09:04.750Z,94134.00
2023-05-10T09:10:05.651Z,94136.00
2023-05-10T09:11:04.799Z,94136.00
2023-05-10T09:12:04.781Z,94132.00
2023-05-10T09:13:04.789Z,94132.00
2023-05-10T09:14:04.826Z,94132.00
2023-05-10T09:15:06.136Z,94132.00
2023-05-10T09:16:17.471Z,94132.00
2023-05-10T09:17:04.994Z,94136.00
2023-05-10T09:18:04.873Z,94136.00
2023-05-10T09:19:04.959Z,94140.00
2023-05-10T09:20:04.854Z,94140.00
2023-05-10T09:21:04.819Z,94140.00
2023-05-10T09:22:04.878Z,94134.00
2023-05-10T09:23:04.797Z,94138.00
2023-05-10T09:24:04.816Z,94140.00
2023-05-10T09:25:05.166Z,94140.00
2023-05-10T09:26:05.169Z,94134.00
2023-05-10T09:27:04.777Z,94134.00
2023-05-10T09:28:04.787Z,94134.00
2023-05-10T09:29:04.757Z,94142.00
2023-05-10T09:30:04.842Z,94144.00
2023-05-10T09:31:05.229Z,94146.00
2023-05-10T09:32:04.763Z,94146.00
2023-05-10T09:33:04.765Z,94148.00
2023-05-10T09:34:04.826Z,94148.00
2023-05-10T09:35:04.731Z,94150.00
2023-05-10T09:36:05.146Z,94148.00
2023-05-10T09:37:04.825Z,94150.00
2023-05-10T09:38:04.786Z,94152.00
2023-05-10T09:39:04.789Z,94152.00
2023-05-10T09:40:04.815Z,94153.00
2023-05-10T09:41:04.809Z,94152.00
2023-05-10T09:42:04.879Z,94153.00
2023-05-10T09:43:04.767Z,94153.00
2023-05-10T09:44:04.777Z,94155.00
2023-05-10T09:45:04.798Z,94148.00
2023-05-10T09:46:05.243Z,94150.00
2023-05-10T09:47:04.759Z,94152.00
2023-05-10T09:48:04.832Z,94152.00
2023-05-10T09:49:04.723Z,94153.00
2023-05-10T09:50:04.810Z,94153.00
2023-05-10T09:51:05.197Z,94155.00
2023-05-10T09:52:04.760Z,94155.00
2023-05-10T09:53:04.956Z,94159.00
2023-05-10T09:54:04.837Z,94157.00
2023-05-10T09:55:04.808Z,94159.00
2023-05-10T09:56:05.162Z,94159.00
2023-05-10T09:57:04.948Z,94157.00
2023-05-10T09:58:05.058Z,94155.00
2023-05-10T09:59:05.066Z,94157.00
2023-05-10T10:00:05.040Z,94155.00
2023-05-10T10:01:05.160Z,94155.00
2023-05-10T10:02:05.187Z,94155.00
2023-05-10T10:03:05.641Z,94157.00
2023-05-10T10:04:05.231Z,94157.00
2023-05-10T10:05:05.370Z,94153.00
2023-05-10T10:06:06.804Z,94153.00
2023-05-10T10:07:05.427Z,94152.00
2023-05-10T10:08:05.351Z,94152.00
2023-05-10T10:09:05.308Z,94150.00
2023-05-10T10:10:05.366Z,94150.00
2023-05-10T10:11:05.295Z,94150.00
2023-05-10T10:12:05.323Z,94150.00
2023-05-10T10:13:05.325Z,94152.00
2023-05-10T10:14:06.224Z,94152.00
2023-05-10T10:15:05.325Z,94153.00
2023-05-10T10:16:05.901Z,94152.00
2023-05-10T10:17:07.214Z,94153.00
2023-05-10T10:18:05.410Z,94157.00
2023-05-10T10:19:06.250Z,94155.00
2023-05-10T10:20:05.263Z,94152.00
2023-05-10T10:21:05.721Z,94157.00
2023-05-10T10:22:05.464Z,94153.00
2023-05-10T10:23:05.271Z,94155.00
2023-05-10T10:24:05.228Z,94155.00
2023-05-10T10:25:05.283Z,94152.00
2023-05-10T10:26:08.185Z,94155.00
2023-05-10T10:27:05.203Z,94153.00
2023-05-10T10:28:05.198Z,94152.00
2023-05-10T10:29:05.226Z,94153.00
2023-05-10T10:30:05.191Z,94153.00
2023-05-10T10:31:05.244Z,94155.00
2023-05-10T10:32:05.243Z,94159.00
2023-05-10T10:33:13.269Z,94155.00
2023-05-10T10:34:05.190Z,94157.00
2023-05-10T10:35:05.152Z,94161.00
2023-05-10T10:36:05.219Z,94159.00
2023-05-10T10:37:05.196Z,94161.00
2023-05-10T10:38:05.151Z,94161.00
2023-05-10T10:39:05.146Z,94155.00
2023-05-10T10:40:05.154Z,94155.00
2023-05-10T10:41:05.169Z,94157.00
2023-05-10T10:42:05.749Z,94153.00
2023-05-10T10:43:05.734Z,94157.00
2023-05-10T10:44:05.219Z,94159.00
2023-05-10T10:45:05.076Z,94157.00
2023-05-10T10:46:05.115Z,94159.00
2023-05-10T10:47:05.100Z,94161.00
2023-05-10T10:48:05.062Z,94165.00
2023-05-10T10:49:05.780Z,94163.00
2023-05-10T10:50:05.089Z,94163.00
2023-05-10T10:51:05.068Z,94163.00
2023-05-10T10:52:05.057Z,94161.00
2023-05-10T10:53:05.047Z,94163.00
2023-05-10T10:54:05.044Z,94163.00
2023-05-10T10:55:05.010Z,94161.00
2023-05-10T10:56:05.120Z,94163.00
2023-05-10T10:57:05.019Z,94167.00
2023-05-10T10:58:05.009Z,94163.00
2023-05-10T10:59:04.997Z,94167.00
2023-05-10T11:00:04.984Z,94163.00
2023-05-10T11:01:05.118Z,94163.00
2023-05-10T11:02:05.250Z,94165.00
2023-05-10T11:03:05.041Z,94165.00
2023-05-10T11:04:05.045Z,94167.00
2023-05-10T11:05:04.939Z,94167.00
2023-05-10T11:06:05.097Z,94167.00
2023-05-10T11:07:04.927Z,94169.00
2023-05-10T11:08:04.934Z,94173.00
2023-05-10T11:09:04.904Z,94169.00
2023-05-10T11:10:05.693Z,94169.00
2023-05-10T11:11:04.907Z,94167.00
2023-05-10T11:12:04.912Z,94165.00
2023-05-10T11:13:04.934Z,94167.00
2023-05-10T11:14:04.912Z,94159.00
2023-05-10T11:15:04.978Z,94155.00
2023-05-10T11:16:05.216Z,94161.00
2023-05-10T11:17:04.965Z,94157.00
2023-05-10T11:18:04.924Z,94155.00
2023-05-10T11:19:04.892Z,94157.00
2023-05-10T11:20:04.859Z,94159.00
2023-05-10T11:21:05.045Z,94159.00
2023-05-10T11:22:04.953Z,94157.00
2023-05-10T11:23:04.960Z,94157.00
2023-05-10T11:24:04.985Z,94155.00
2023-05-10T11:25:04.989Z,94155.00
2023-05-10T11:26:04.963Z,94153.00
2023-05-10T11:27:04.934Z,94157.00
2023-05-10T11:28:05.038Z,94155.00
2023-05-10T11:29:04.943Z,94155.00
2023-05-10T11:30:05.095Z,94155.00
2023-05-10T11:31:04.972Z,94157.00
2023-05-10T11:32:04.932Z,94157.00
2023-05-10T11:33:04.973Z,94157.00
2023-05-10T11:34:04.920Z,94157.00
2023-05-10T11:35:04.925Z,94157.00
2023-05-10T11:36:04.957Z,94159.00
2023-05-10T11:37:05.015Z,94159.00
2023-05-10T11:38:05.027Z,94159.00
2023-05-10T11:39:05.113Z,94159.00
2023-05-10T11:40:05.704Z,94161.00
2023-05-10T11:41:05.114Z,94159.00
2023-05-10T11:42:05.115Z,94159.00
2023-05-10T11:43:05.052Z,94159.00
2023-05-10T11:44:05.068Z,94159.00
2023-05-10T11:45:05.077Z,94159.00
2023-05-10T11:46:05.127Z,94159.00
2023-05-10T11:47:05.042Z,94159.00
2023-05-10T11:48:05.720Z,94159.00
2023-05-10T11:49:05.299Z,94161.00
2023-05-10T11:50:05.135Z,94161.00
2023-05-10T11:51:05.016Z,94161.00
2023-05-10T11:52:05.010Z,94161.00
2023-05-10T11:53:05.001Z,94159.00
2023-05-10T11:54:05.059Z,94161.00
2023-05-10T11:55:05.127Z,94163.00
2023-05-10T11:56:05.227Z,94163.00
2023-05-10T11:57:05.263Z,94163.00
2023-05-10T11:58:05.284Z,94163.00
2023-05-10T11:59:05.381Z,94165.00
2023-05-10T12:00:05.391Z,94163.00
2023-05-10T12:01:05.441Z,94165.00
2023-05-10T12:02:05.442Z,94165.00
2023-05-10T12:03:06.375Z,94163.00
2023-05-10T12:04:05.715Z,94163.00
2023-05-10T12:05:05.951Z,94165.00
2023-05-10T12:06:05.717Z,94163.00
2023-05-10T12:07:05.415Z,94159.00
2023-05-10T12:08:05.434Z,94167.00
2023-05-10T12:09:05.445Z,94167.00
2023-05-10T12:10:05.450Z,94167.00
2023-05-10T12:11:06.248Z,94171.00
2023-05-10T12:12:05.523Z,94165.00
2023-05-10T12:13:06.224Z,94167.00
2023-05-10T12:14:05.659Z,94163.00
2023-05-10T12:15:05.675Z,94165.00
2023-05-10T12:16:05.796Z,94167.00
2023-05-10T12:17:05.854Z,94171.00
2023-05-10T12:18:06.819Z,94169.00
2023-05-10T12:19:05.948Z,94171.00
2023-05-10T12:20:06.711Z,94171.00
2023-05-10T12:21:05.935Z,94169.00
2023-05-10T12:22:05.823Z,94173.00
2023-05-10T12:23:05.812Z,94173.00
2023-05-10T12:24:05.805Z,94183.00
2023-05-10T12:25:05.773Z,94173.00
2023-05-10T12:26:05.786Z,94183.00
2023-05-10T12:27:05.788Z,94181.00
2023-05-10T12:28:05.805Z,94181.00
2023-05-10T12:29:06.738Z,94177.00
2023-05-10T12:30:05.887Z,94177.00
2023-05-10T12:31:05.737Z,94179.00
2023-05-10T12:32:05.741Z,94179.00
2023-05-10T12:33:05.804Z,94181.00
2023-05-10T12:34:05.714Z,94181.00
2023-05-10T12:35:05.802Z,94187.00
2023-05-10T12:36:05.745Z,94187.00
2023-05-10T12:37:05.678Z,94187.00
2023-05-10T12:38:05.685Z,94191.00
2023-05-10T12:39:05.692Z,94181.00
2023-05-10T12:40:05.695Z,94181.00
2023-05-10T12:41:05.719Z,94187.00
2023-05-10T12:42:05.738Z,94183.00
2023-05-10T12:43:05.683Z,94185.00
2023-05-10T12:44:05.695Z,94185.00
2023-05-10T12:45:05.727Z,94185.00
2023-05-10T12:46:06.819Z,94185.00
2023-05-10T12:47:05.740Z,94185.00
2023-05-10T12:48:05.794Z,94187.00
2023-05-10T12:49:09.620Z,94187.00
2023-05-10T12:50:05.720Z,94187.00
2023-05-10T12:51:05.714Z,94189.00
2023-05-10T12:52:05.716Z,94183.00
2023-05-10T12:53:05.704Z,94185.00
2023-05-10T12:54:05.703Z,94179.00
2023-05-10T12:55:05.677Z,94179.00
2023-05-10T12:56:05.785Z,94181.00
2023-05-10T12:57:05.797Z,94183.00
2023-05-10T12:58:05.663Z,94187.00
2023-05-10T12:59:05.673Z,94187.00
2023-05-10T13:00:06.259Z,94189.00
2023-05-10T13:01:06.260Z,94183.00
2023-05-10T13:02:05.646Z,94185.00
2023-05-10T13:03:06.240Z,94187.00
2023-05-10T13:04:05.747Z,94189.00
2023-05-10T13:05:05.688Z,94189.00
2023-05-10T13:06:05.593Z,94183.00
2023-05-10T13:07:05.606Z,94185.00
2023-05-10T13:08:05.586Z,94187.00
2023-05-10T13:09:05.605Z,94185.00
2023-05-10T13:10:05.590Z,94191.00
2023-05-10T13:11:05.564Z,94185.00
2023-05-10T13:12:05.723Z,94183.00
2023-05-10T13:13:05.559Z,94185.00
2023-05-10T13:14:05.575Z,94181.00
2023-05-10T13:15:05.643Z,94183.00
2023-05-10T13:16:05.546Z,94181.00
2023-05-10T13:17:05.634Z,94187.00
2023-05-10T13:18:05.628Z,94185.00
2023-05-10T13:19:05.616Z,94189.00
2023-05-10T13:20:05.567Z,94181.00
2023-05-10T13:21:05.527Z,94179.00
2023-05-10T13:22:05.728Z,94177.00
2023-05-10T13:23:05.571Z,94179.00
2023-05-10T13:24:05.469Z,94181.00
2023-05-10T13:25:05.446Z,94179.00
2023-05-10T13:26:05.686Z,94175.00
2023-05-10T13:27:06.243Z,94175.00
2023-05-10T13:28:05.442Z,94175.00
2023-05-10T13:29:06.291Z,94175.00
2023-05-10T13:30:05.477Z,94175.00
2023-05-10T13:31:05.492Z,94179.00
2023-05-10T13:32:05.517Z,94173.00
2023-05-10T13:33:05.493Z,94171.00
2023-05-10T13:34:05.402Z,94173.00
2023-05-10T13:35:05.384Z,94181.00
2023-05-10T13:36:05.402Z,94181.00
2023-05-10T13:37:05.387Z,94181.00
2023-05-10T13:38:05.386Z,94177.00
2023-05-10T13:39:05.397Z,94183.00
2023-05-10T13:40:05.335Z,94183.00
2023-05-10T13:41:05.434Z,94181.00
2023-05-10T13:42:05.349Z,94175.00
2023-05-10T13:43:05.344Z,94183.00
2023-05-10T13:44:05.511Z,94187.00
2023-05-10T13:45:05.370Z,94187.00
2023-05-10T13:46:05.338Z,94181.00
2023-05-10T13:47:05.378Z,94185.00
2023-05-10T13:48:05.380Z,94181.00
2023-05-10T13:49:05.292Z,94185.00
2023-05-10T13:50:05.802Z,94189.00
2023-05-10T13:51:06.322Z,94187.00
2023-05-10T13:52:07.272Z,94185.00
2023-05-10T13:53:05.244Z,94183.00
2023-05-10T13:54:05.266Z,94185.00
2023-05-10T13:55:05.345Z,94185.00
2023-05-10T13:56:05.273Z,94185.00
2023-05-10T13:57:05.278Z,94177.00
2023-05-10T13:58:05.283Z,94183.00
2023-05-10T13:59:05.236Z,94183.00
2023-05-10T14:00:05.411Z,94185.00
2023-05-10T14:01:05.252Z,94187.00
2023-05-10T14:02:05.371Z,94187.00
2023-05-10T14:03:05.379Z,94187.00
2023-05-10T14:04:05.352Z,94187.00
2023-05-10T14:05:05.232Z,94189.00
2023-05-10T14:06:05.197Z,94185.00
2023-05-10T14:07:05.294Z,94189.00
2023-05-10T14:08:05.201Z,94185.00
2023-05-10T14:09:06.187Z,94189.00
2023-05-10T14:10:05.844Z,94189.00
2023-05-10T14:11:05.157Z,94189.00
2023-05-10T14:12:05.190Z,94187.00
2023-05-10T14:13:05.124Z,94185.00
2023-05-10T14:14:05.191Z,94183.00
2023-05-10T14:15:05.190Z,94185.00
2023-05-10T14:16:05.178Z,94183.00
2023-05-10T14:17:08.726Z,94185.00
2023-05-10T14:18:05.223Z,94183.00
2023-05-10T14:19:05.179Z,94185.00
2023-05-10T14:20:05.121Z,94185.00
2023-05-10T14:21:05.140Z,94185.00
2023-05-10T14:22:05.150Z,94187.00
2023-05-10T14:23:05.107Z,94183.00
2023-05-10T14:24:05.093Z,94185.00
2023-05-10T14:25:05.333Z,94185.00
2023-05-10T14:26:05.083Z,94189.00
2023-05-10T14:27:05.086Z,94187.00
2023-05-10T14:28:05.140Z,94189.00
2023-05-10T14:29:05.851Z,94187.00
2023-05-10T14:30:05.073Z,94189.00
2023-05-10T14:31:05.137Z,94181.00
2023-05-10T14:32:05.084Z,94179.00
2023-05-10T14:33:05.049Z,94181.00
2023-05-10T14:34:05.046Z,94185.00
2023-05-10T14:35:05.033Z,94181.00
2023-05-10T14:36:05.101Z,94183.00
2023-05-10T14:37:05.293Z,94183.00
2023-05-10T14:38:05.011Z,94185.00
2023-05-10T14:39:05.001Z,94183.00
2023-05-10T14:40:05.071Z,94187.00
2023-05-10T14:41:04.971Z,94185.00
2023-05-10T14:42:04.994Z,94189.00
2023-05-10T14:43:04.966Z,94193.00
2023-05-10T14:44:04.955Z,94185.00
2023-05-10T14:45:04.954Z,94183.00
2023-05-10T14:46:04.989Z,94185.00
2023-05-10T14:47:05.021Z,94185.00
2023-05-10T14:48:07.843Z,94187.00
2023-05-10T14:49:04.957Z,94185.00
2023-05-10T14:50:04.919Z,94187.00
2023-05-10T14:51:04.930Z,94189.00
2023-05-10T14:52:04.909Z,94189.00
2023-05-10T14:53:04.915Z,94189.00
2023-05-10T14:54:04.915Z,94187.00
2023-05-10T14:55:04.886Z,94193.00
2023-05-10T14:56:04.865Z,94193.00
2023-05-10T14:57:04.860Z,94195.00
2023-05-10T14:58:04.852Z,94197.00
2023-05-10T14:59:04.831Z,94195.00
2023-05-10T15:00:04.828Z,94199.00
2023-05-10T15:01:04.846Z,94195.00
2023-05-10T15:02:04.855Z,94197.00
2023-05-10T15:03:04.898Z,94193.00
2023-05-10T15:04:04.806Z,94195.00
2023-05-10T15:05:04.817Z,94193.00
2023-05-10T15:06:04.810Z,94197.00
2023-05-10T15:07:04.946Z,94197.00
2023-05-10T15:08:04.788Z,94199.00
2023-05-10T15:09:04.937Z,94208.00
2023-05-10T15:10:04.878Z,94208.00
2023-05-10T15:11:04.756Z,94199.00
2023-05-10T15:12:04.831Z,94197.00
2023-05-10T15:13:04.767Z,94203.00
2023-05-10T15:14:04.755Z,94203.00
2023-05-10T15:15:04.784Z,94205.00
2023-05-10T15:16:04.780Z,94205.00
2023-05-10T15:17:04.765Z,94205.00
2023-05-10T15:18:04.755Z,94208.00
2023-05-10T15:19:04.745Z,94205.00
2023-05-10T15:20:04.765Z,94207.00
2023-05-10T15:21:04.712Z,94207.00
2023-05-10T15:22:04.722Z,94207.00
2023-05-10T15:23:04.675Z,94207.00
2023-05-10T15:24:04.669Z,94210.00
2023-05-10T15:25:04.668Z,94210.00
2023-05-10T15:26:04.671Z,94210.00
2023-05-10T15:27:04.716Z,94210.00
2023-05-10T15:28:04.624Z,94210.00
2023-05-10T15:29:05.295Z,94212.00
2023-05-10T15:30:05.326Z,94214.00
2023-05-10T15:31:04.853Z,94210.00
2023-05-10T15:32:04.922Z,94216.00
2023-05-10T15:33:04.830Z,94214.00
2023-05-10T15:34:04.764Z,94216.00
2023-05-10T15:35:04.767Z,94220.00
2023-05-10T15:36:04.804Z,94218.00
2023-05-10T15:37:04.802Z,94220.00
2023-05-10T15:38:04.848Z,94220.00
2023-05-10T15:39:04.837Z,94224.00
2023-05-10T15:40:05.153Z,94222.00
2023-05-10T15:41:04.925Z,94224.00
2023-05-10T15:42:04.868Z,94224.00
2023-05-10T15:43:04.905Z,94224.00
2023-05-10T15:44:04.802Z,94224.00
2023-05-10T15:45:04.804Z,94226.00
2023-05-10T15:46:04.798Z,94230.00
2023-05-10T15:47:04.894Z,94238.00
2023-05-10T15:48:04.873Z,94228.00
2023-05-10T15:49:04.806Z,94230.00
2023-05-10T15:50:04.784Z,94232.00
2023-05-10T15:51:04.782Z,94234.00
2023-05-10T15:52:04.755Z,94236.00
2023-05-10T15:53:04.788Z,94236.00
2023-05-10T15:54:07.718Z,94236.00
2023-05-10T15:55:04.754Z,94240.00
2023-05-10T15:56:04.805Z,94240.00
2023-05-10T15:57:04.818Z,94240.00
2023-05-10T15:58:04.818Z,94242.00
2023-05-10T15:59:04.741Z,94240.00
2023-05-10T16:00:04.744Z,94240.00
2023-05-10T16:01:04.757Z,94244.00
2023-05-10T16:02:04.766Z,94246.00
2023-05-10T16:03:04.830Z,94246.00
2023-05-10T16:04:04.738Z,94248.00
2023-05-10T16:05:04.680Z,94246.00
2023-05-10T16:06:05.384Z,94248.00
2023-05-10T16:07:04.651Z,94248.00
2023-05-10T16:08:04.663Z,94248.00
2023-05-10T16:09:04.654Z,94246.00
2023-05-10T16:10:04.856Z,94248.00
2023-05-10T16:11:04.665Z,94248.00
2023-05-10T16:12:04.638Z,94252.00
2023-05-10T16:13:04.662Z,94252.00
2023-05-10T16:14:07.039Z,94255.00
2023-05-10T16:15:04.828Z,94255.00
2023-05-10T16:16:04.873Z,94259.00
2023-05-10T16:17:05.040Z,94259.00
2023-05-10T16:18:04.905Z,94261.00
2023-05-10T16:19:04.889Z,94261.00
2023-05-10T16:20:04.936Z,94257.00
2023-05-10T16:21:04.954Z,94259.00
2023-05-10T16:22:04.845Z,94263.00
2023-05-10T16:23:04.879Z,94259.00
2023-05-10T16:24:05.837Z,94259.00
2023-05-10T16:25:05.815Z,94261.00
2023-05-10T16:26:04.845Z,94263.00
2023-05-10T16:27:04.865Z,94263.00
2023-05-10T16:28:04.867Z,94263.00
2023-05-10T16:29:04.843Z,94265.00
2023-05-10T16:30:05.414Z,94263.00
2023-05-10T16:31:04.894Z,94265.00
2023-05-10T16:32:04.793Z,94267.00
2023-05-10T16:33:04.844Z,94263.00
2023-05-10T16:34:04.778Z,94265.00
2023-05-10T16:35:04.781Z,94267.00
2023-05-10T16:36:04.817Z,94269.00
2023-05-10T16:37:05.333Z,94271.00
2023-05-10T16:38:04.830Z,94273.00
2023-05-10T16:39:06.329Z,94275.00
2023-05-10T16:40:04.746Z,94271.00
2023-05-10T16:41:04.758Z,94273.00
2023-05-10T16:42:04.726Z,94273.00
2023-05-10T16:43:04.790Z,94273.00
2023-05-10T16:44:04.742Z,94277.00
2023-05-10T16:45:04.716Z,94275.00
2023-05-10T16:46:04.941Z,94279.00
2023-05-10T16:47:04.708Z,94279.00
2023-05-10T16:48:04.787Z,94281.00
2023-05-10T16:49:04.702Z,94281.00
2023-05-10T16:50:04.663Z,94285.00
2023-05-10T16:51:04.727Z,94285.00
2023-05-10T16:52:04.652Z,94283.00
2023-05-10T16:53:04.721Z,94287.00
2023-05-10T16:54:04.658Z,94287.00
2023-05-10T16:55:05.369Z,94289.00
2023-05-10T16:56:04.661Z,94287.00
2023-05-10T16:57:04.641Z,94287.00
2023-05-10T16:58:04.659Z,94289.00
2023-05-10T16:59:05.372Z,94289.00
2023-05-10T17:00:04.669Z,94289.00
2023-05-10T17:01:04.662Z,94289.00
2023-05-10T17:02:04.716Z,94291.00
2023-05-10T17:03:04.940Z,94291.00
2023-05-10T17:04:04.630Z,94293.00
2023-05-10T17:05:04.584Z,94297.00
2023-05-10T17:06:04.568Z,94295.00
2023-05-10T17:07:04.565Z,94293.00
2023-05-10T17:08:04.624Z,94293.00
2023-05-10T17:09:04.552Z,94295.00
2023-05-10T17:10:04.538Z,94299.00
2023-05-10T17:11:04.545Z,94297.00
2023-05-10T17:12:04.521Z,94299.00
2023-05-10T17:13:04.513Z,94301.00
2023-05-10T17:14:04.503Z,94302.00
2023-05-10T17:15:04.527Z,94302.00
2023-05-10T17:16:04.840Z,94299.00
2023-05-10T17:17:04.538Z,94302.00
2023-05-10T17:18:04.500Z,94301.00
2023-05-10T17:19:04.592Z,94304.00
2023-05-10T17:20:04.463Z,94306.00
2023-05-10T17:21:04.495Z,94306.00
2023-05-10T17:22:04.462Z,94310.00
2023-05-10T17:23:04.839Z,94310.00
2023-05-10T17:24:04.447Z,94314.00
2023-05-10T17:25:04.420Z,94312.00
2023-05-10T17:26:04.446Z,94312.00
2023-05-10T17:27:04.478Z,94314.00
2023-05-10T17:28:04.863Z,94318.00
2023-05-10T17:29:04.418Z,94318.00
2023-05-10T17:30:04.561Z,94318.00
2023-05-10T17:31:04.454Z,94320.00
2023-05-10T17:32:04.432Z,94318.00
2023-05-10T17:33:04.450Z,94324.00
2023-05-10T17:34:05.843Z,94322.00
2023-05-10T17:35:04.444Z,94322.00
2023-05-10T17:36:04.464Z,94322.00
2023-05-10T17:37:04.489Z,94324.00
2023-05-10T17:38:04.543Z,94324.00
2023-05-10T17:39:04.613Z,94324.00
2023-05-10T17:40:04.617Z,94324.00
2023-05-10T17:41:04.626Z,94326.00
2023-05-10T17:42:04.665Z,94326.00
2023-05-10T17:43:04.699Z,94330.00
2023-05-10T17:44:04.728Z,94324.00
2023-05-10T17:45:04.854Z,94326.00
2023-05-10T17:46:04.855Z,94330.00
2023-05-10T17:47:04.970Z,94330.00
2023-05-10T17:48:05.001Z,94332.00
2023-05-10T17:49:06.870Z,94334.00
2023-05-10T17:50:05.043Z,94336.00
2023-05-10T17:51:05.023Z,94336.00
2023-05-10T17:52:05.070Z,94334.00
2023-05-10T17:53:05.118Z,94340.00
2023-05-10T17:54:05.170Z,94338.00
2023-05-10T17:55:05.240Z,94338.00
2023-05-10T17:56:05.252Z,94340.00
2023-05-10T17:57:05.291Z,94342.00
2023-05-10T17:58:05.334Z,94344.00
2023-05-10T17:59:05.378Z,94344.00
2023-05-10T18:00:05.434Z,94344.00
2023-05-10T18:01:05.494Z,94344.00
2023-05-10T18:02:05.478Z,94344.00
2023-05-10T18:03:05.639Z,94344.00
2023-05-10T18:04:05.567Z,94340.00
2023-05-10T18:05:05.650Z,94344.00
2023-05-10T18:06:05.637Z,94344.00
2023-05-10T18:07:05.521Z,94344.00
2023-05-10T18:08:05.860Z,94346.00
2023-05-10T18:09:06.349Z,94348.00
2023-05-10T18:10:05.500Z,94349.00
2023-05-10T18:11:05.491Z,94351.00
2023-05-10T18:12:05.496Z,94351.00
2023-05-10T18:13:08.038Z,94353.00
2023-05-10T18:14:05.477Z,94349.00
2023-05-10T18:15:05.511Z,94355.00
2023-05-10T18:16:05.461Z,94357.00
2023-05-10T18:17:05.551Z,94351.00
2023-05-10T18:18:05.470Z,94351.00
2023-05-10T18:19:05.497Z,94353.00
2023-05-10T18:20:05.446Z,94355.00
2023-05-10T18:21:05.460Z,94353.00
2023-05-10T18:22:05.821Z,94359.00
2023-05-10T18:23:05.421Z,94361.00
2023-05-10T18:24:10.386Z,94357.00
2023-05-10T18:25:05.400Z,94359.00
2023-05-10T18:26:06.361Z,94361.00
2023-05-10T18:27:06.350Z,94363.00
2023-05-10T18:28:06.377Z,94363.00
2023-05-10T18:29:05.378Z,94367.00
2023-05-10T18:30:05.412Z,94365.00
2023-05-10T18:31:05.402Z,94365.00
2023-05-10T18:32:05.400Z,94365.00
2023-05-10T18:33:05.408Z,94371.00
2023-05-10T18:34:05.356Z,94367.00
2023-05-10T18:35:05.331Z,94369.00
2023-05-10T18:36:05.881Z,94371.00
2023-05-10T18:37:05.335Z,94373.00
2023-05-10T18:38:05.338Z,94375.00
2023-05-10T18:39:05.339Z,94373.00
2023-05-10T18:40:05.297Z,94377.00